Terminal Aerodrome Forecast
Issued by NWS Sterling, VA

Home | Current Version | Previous Version | Text Only | Print | Product List | Glossary On
Versions: 1 2 3 4 5 6 7 8 9 10 11 12 13 14 15 16 17 18 19 20 21 22
000
FTUS41 KLWX 270521
TAFBWI
TAF
KBWI 270521Z 2706/2812 08007KT 3/4SM BR VV002
     FM270900 16006KT 1SM -DZ BR OVC003
     FM271200 19007KT P6SM BKN003
     FM271300 19007KT P6SM BKN008
     FM271600 22008KT P6SM BKN010
     FM271900 22008KT P6SM BKN050
     FM280000 16004KT P6SM BKN050=

USA.gov is the U.S. government's official web portal to all federal, state and local government web resources and services.